sensor_id;sensor_type;location;lat;lon;timestamp;temperature;humidity
14884;DHT22;7534;50.762;7.000;2023-08-20T00:01:06;22.40;99.90
14884;DHT22;7534;50.762;7.000;2023-08-20T00:03:37;22.50;99.90
14884;DHT22;7534;50.762;7.000;2023-08-20T00:06:05;22.40;99.90
14884;DHT22;7534;50.762;7.000;2023-08-20T00:08:31;22.40;99.90
14884;DHT22;7534;50.762;7.000;2023-08-20T00:10:57;22.30;99.90
14884;DHT22;7534;50.762;7.000;2023-08-20T00:13:23;22.20;99.90
14884;DHT22;7534;50.762;7.000;2023-08-20T00:15:49;22.30;99.90
14884;DHT22;7534;50.762;7.000;2023-08-20T00:18:15;22.20;99.90
14884;DHT22;7534;50.762;7.000;2023-08-20T00:20:41;22.20;99.90
14884;DHT22;7534;50.762;7.000;2023-08-20T00:23:07;22.10;99.90
14884;DHT22;7534;50.762;7.000;2023-08-20T00:25:33;22.10;99.90
14884;DHT22;7534;50.762;7.000;2023-08-20T00:27:59;22.00;99.90
14884;DHT22;7534;50.762;7.000;2023-08-20T00:30:25;22.10;99.90
14884;DHT22;7534;50.762;7.000;2023-08-20T00:32:50;22.00;99.90
14884;DHT22;7534;50.762;7.000;2023-08-20T00:35:16;22.00;99.90
14884;DHT22;7534;50.762;7.000;2023-08-20T00:37:42;22.00;99.90
14884;DHT22;7534;50.762;7.000;2023-08-20T00:40:10;22.20;99.90
14884;DHT22;7534;50.762;7.000;2023-08-20T00:42:36;21.90;99.90
14884;DHT22;7534;50.762;7.000;2023-08-20T00:45:03;21.80;99.90
14884;DHT22;7534;50.762;7.000;2023-08-20T00:47:29;21.80;99.90
14884;DHT22;7534;50.762;7.000;2023-08-20T00:49:55;21.80;99.90
14884;DHT22;7534;50.762;7.000;2023-08-20T00:52:21;21.90;99.90
14884;DHT22;7534;50.762;7.000;2023-08-20T00:54:49;21.50;99.90
14884;DHT22;7534;50.762;7.000;2023-08-20T00:57:17;21.70;99.90
14884;DHT22;7534;50.762;7.000;2023-08-20T00:59:47;22.00;99.90
14884;DHT22;7534;50.762;7.000;2023-08-20T01:02:17;21.70;99.90
14884;DHT22;7534;50.762;7.000;2023-08-20T01:04:43;21.70;99.90
14884;DHT22;7534;50.762;7.000;2023-08-20T01:12:51;21.80;99.90
14884;DHT22;7534;50.762;7.000;2023-08-20T01:15:18;21.80;99.90
14884;DHT22;7534;50.762;7.000;2023-08-20T01:17:44;21.70;99.90
14884;DHT22;7534;50.762;7.000;2023-08-20T01:20:11;22.10;99.90
14884;DHT22;7534;50.762;7.000;2023-08-20T01:29:16;21.50;99.90
14884;DHT22;7534;50.762;7.000;2023-08-20T01:31:44;21.50;99.90
14884;DHT22;7534;50.762;7.000;2023-08-20T01:34:10;21.40;99.90
14884;DHT22;7534;50.762;7.000;2023-08-20T01:36:37;21.40;99.90
14884;DHT22;7534;50.762;7.000;2023-08-20T01:39:03;21.40;99.90
14884;DHT22;7534;50.762;7.000;2023-08-20T01:41:30;21.40;99.90
14884;DHT22;7534;50.762;7.000;2023-08-20T01:43:56;21.30;99.90
14884;DHT22;7534;50.762;7.000;2023-08-20T01:46:22;21.20;99.90
14884;DHT22;7534;50.762;7.000;2023-08-20T01:48:47;21.20;99.90
14884;DHT22;7534;50.762;7.000;2023-08-20T01:51:13;21.20;99.90
14884;DHT22;7534;50.762;7.000;2023-08-20T01:53:39;21.20;99.90
14884;DHT22;7534;50.762;7.000;2023-08-20T01:56:10;21.10;99.90
14884;DHT22;7534;50.762;7.000;2023-08-20T01:58:38;21.10;99.90
14884;DHT22;7534;50.762;7.000;2023-08-20T02:01:04;21.10;99.90
14884;DHT22;7534;50.762;7.000;2023-08-20T02:03:30;21.30;99.90
14884;DHT22;7534;50.762;7.000;2023-08-20T02:05:56;21.00;99.90
14884;DHT22;7534;50.762;7.000;2023-08-20T02:08:22;20.90;99.90
14884;DHT22;7534;50.762;7.000;2023-08-20T02:10:48;21.00;99.90
14884;DHT22;7534;50.762;7.000;2023-08-20T02:13:14;21.00;99.90
14884;DHT22;7534;50.762;7.000;2023-08-20T02:15:39;20.90;99.90
14884;DHT22;7534;50.762;7.000;2023-08-20T02:18:05;21.00;99.90
14884;DHT22;7534;50.762;7.000;2023-08-20T02:20:31;20.90;99.90
14884;DHT22;7534;50.762;7.000;2023-08-20T02:22:56;20.90;99.90
14884;DHT22;7534;50.762;7.000;2023-08-20T02:25:23;21.00;99.90
14884;DHT22;7534;50.762;7.000;2023-08-20T02:27:50;21.10;99.90
14884;DHT22;7534;50.762;7.000;2023-08-20T02:30:16;21.10;99.90
14884;DHT22;7534;50.762;7.000;2023-08-20T02:32:42;21.10;99.90
14884;DHT22;7534;50.762;7.000;2023-08-20T02:35:08;21.10;99.90
14884;DHT22;7534;50.762;7.000;2023-08-20T02:37:33;21.00;99.90
14884;DHT22;7534;50.762;7.000;2023-08-20T02:39:59;20.90;99.90
14884;DHT22;7534;50.762;7.000;2023-08-20T02:42:26;20.90;99.90
14884;DHT22;7534;50.762;7.000;2023-08-20T02:44:52;20.90;99.90
14884;DHT22;7534;50.762;7.000;2023-08-20T02:47:17;20.90;99.90
14884;DHT22;7534;50.762;7.000;2023-08-20T02:49:43;20.90;99.90
14884;DHT22;7534;50.762;7.000;2023-08-20T02:52:09;21.00;99.90
14884;DHT22;7534;50.762;7.000;2023-08-20T02:54:34;20.90;99.90
14884;DHT22;7534;50.762;7.000;2023-08-20T02:57:00;20.90;99.90
14884;DHT22;7534;50.762;7.000;2023-08-20T02:59:25;21.00;99.90
14884;DHT22;7534;50.762;7.000;2023-08-20T03:01:51;21.10;99.90
14884;DHT22;7534;50.762;7.000;2023-08-20T03:04:17;21.00;99.90
14884;DHT22;7534;50.762;7.000;2023-08-20T03:06:43;21.00;99.90
14884;DHT22;7534;50.762;7.000;2023-08-20T03:09:09;21.00;99.90
14884;DHT22;7534;50.762;7.000;2023-08-20T03:11:35;21.00;99.90
14884;DHT22;7534;50.762;7.000;2023-08-20T03:14:00;21.10;99.90
14884;DHT22;7534;50.762;7.000;2023-08-20T03:16:26;21.20;99.90
14884;DHT22;7534;50.762;7.000;2023-08-20T03:18:52;21.10;99.90
14884;DHT22;7534;50.762;7.000;2023-08-20T03:21:17;21.10;99.90
14884;DHT22;7534;50.762;7.000;2023-08-20T03:23:43;21.10;99.90
14884;DHT22;7534;50.762;7.000;2023-08-20T03:26:09;21.10;99.90
14884;DHT22;7534;50.762;7.000;2023-08-20T03:28:34;21.00;99.90
14884;DHT22;7534;50.762;7.000;2023-08-20T03:31:01;21.00;99.90
14884;DHT22;7534;50.762;7.000;2023-08-20T03:33:27;21.00;99.90
14884;DHT22;7534;50.762;7.000;2023-08-20T03:35:53;21.00;99.90
14884;DHT22;7534;50.762;7.000;2023-08-20T03:38:18;20.90;99.90
14884;DHT22;7534;50.762;7.000;2023-08-20T03:40:44;20.90;99.90
14884;DHT22;7534;50.762;7.000;2023-08-20T03:43:10;21.00;99.90
14884;DHT22;7534;50.762;7.000;2023-08-20T03:45:36;21.20;99.90
14884;DHT22;7534;50.762;7.000;2023-08-20T03:48:02;21.00;99.90
14884;DHT22;7534;50.762;7.000;2023-08-20T03:50:27;21.10;99.90
14884;DHT22;7534;50.762;7.000;2023-08-20T03:52:53;21.00;99.90
14884;DHT22;7534;50.762;7.000;2023-08-20T03:55:19;21.20;99.90
14884;DHT22;7534;50.762;7.000;2023-08-20T03:57:44;21.30;99.90
14884;DHT22;7534;50.762;7.000;2023-08-20T04:00:11;21.40;99.90
14884;DHT22;7534;50.762;7.000;2023-08-20T04:02:37;21.30;99.90
14884;DHT22;7534;50.762;7.000;2023-08-20T04:05:04;21.20;99.90
14884;DHT22;7534;50.762;7.000;2023-08-20T04:07:30;21.60;99.90
14884;DHT22;7534;50.762;7.000;2023-08-20T04:09:55;21.40;99.90
14884;DHT22;7534;50.762;7.000;2023-08-20T04:12:21;21.40;99.90
14884;DHT22;7534;50.762;7.000;2023-08-20T04:14:47;21.50;99.90
14884;DHT22;7534;50.762;7.000;2023-08-20T04:17:12;21.60;99.90
14884;DHT22;7534;50.762;7.000;2023-08-20T04:19:38;21.40;99.90
14884;DHT22;7534;50.762;7.000;2023-08-20T04:22:04;21.40;99.90
14884;DHT22;7534;50.762;7.000;2023-08-20T04:24:29;21.50;99.90
14884;DHT22;7534;50.762;7.000;2023-08-20T04:26:55;21.40;99.90
14884;DHT22;7534;50.762;7.000;2023-08-20T04:29:22;21.30;99.90
14884;DHT22;7534;50.762;7.000;2023-08-20T04:31:48;21.30;99.90
14884;DHT22;7534;50.762;7.000;2023-08-20T04:34:13;21.30;99.90
14884;DHT22;7534;50.762;7.000;2023-08-20T04:36:39;21.40;99.90
14884;DHT22;7534;50.762;7.000;2023-08-20T04:39:05;21.30;99.90
14884;DHT22;7534;50.762;7.000;2023-08-20T04:41:30;21.40;99.90
14884;DHT22;7534;50.762;7.000;2023-08-20T04:43:56;21.40;99.90
14884;DHT22;7534;50.762;7.000;2023-08-20T04:46:22;21.40;99.90
14884;DHT22;7534;50.762;7.000;2023-08-20T04:48:47;21.40;99.90
14884;DHT22;7534;50.762;7.000;2023-08-20T04:51:13;21.30;99.90
14884;DHT22;7534;50.762;7.000;2023-08-20T04:53:39;21.30;99.90
14884;DHT22;7534;50.762;7.000;2023-08-20T04:56:04;21.30;99.90
14884;DHT22;7534;50.762;7.000;2023-08-20T04:58:30;21.40;99.90
14884;DHT22;7534;50.762;7.000;2023-08-20T05:00:56;21.70;99.90
14884;DHT22;7534;50.762;7.000;2023-08-20T05:03:21;21.40;99.90
14884;DHT22;7534;50.762;7.000;2023-08-20T05:05:50;21.60;99.90
14884;DHT22;7534;50.762;7.000;2023-08-20T05:08:16;21.50;99.90
14884;DHT22;7534;50.762;7.000;2023-08-20T05:10:42;21.60;99.90
14884;DHT22;7534;50.762;7.000;2023-08-20T05:13:09;21.60;99.90
14884;DHT22;7534;50.762;7.000;2023-08-20T05:15:35;21.60;99.90
14884;DHT22;7534;50.762;7.000;2023-08-20T05:18:00;21.90;99.90
14884;DHT22;7534;50.762;7.000;2023-08-20T05:20:26;21.90;99.90
14884;DHT22;7534;50.762;7.000;2023-08-20T05:22:52;22.20;99.90
14884;DHT22;7534;50.762;7.000;2023-08-20T05:25:17;22.40;99.90
14884;DHT22;7534;50.762;7.000;2023-08-20T05:27:43;22.60;99.90
14884;DHT22;7534;50.762;7.000;2023-08-20T05:30:09;23.00;99.90
14884;DHT22;7534;50.762;7.000;2023-08-20T05:32:35;22.90;99.90
14884;DHT22;7534;50.762;7.000;2023-08-20T05:35:01;23.00;99.90
14884;DHT22;7534;50.762;7.000;2023-08-20T05:37:27;23.00;99.90
14884;DHT22;7534;50.762;7.000;2023-08-20T05:39:53;22.90;99.90
14884;DHT22;7534;50.762;7.000;2023-08-20T05:42:18;22.80;99.90
14884;DHT22;7534;50.762;7.000;2023-08-20T05:44:44;22.80;99.90
14884;DHT22;7534;50.762;7.000;2023-08-20T05:47:10;22.70;99.90
14884;DHT22;7534;50.762;7.000;2023-08-20T05:49:35;22.80;99.90
14884;DHT22;7534;50.762;7.000;2023-08-20T05:52:01;22.90;99.90
14884;DHT22;7534;50.762;7.000;2023-08-20T05:54:28;23.10;99.90
14884;DHT22;7534;50.762;7.000;2023-08-20T05:56:53;23.40;99.90
14884;DHT22;7534;50.762;7.000;2023-08-20T05:59:19;23.40;99.90
14884;DHT22;7534;50.762;7.000;2023-08-20T06:01:45;23.60;99.90
14884;DHT22;7534;50.762;7.000;2023-08-20T06:04:10;24.00;99.90
14884;DHT22;7534;50.762;7.000;2023-08-20T06:06:36;24.10;99.90
14884;DHT22;7534;50.762;7.000;2023-08-20T06:09:02;24.30;99.90
14884;DHT22;7534;50.762;7.000;2023-08-20T06:11:28;24.20;99.90
14884;DHT22;7534;50.762;7.000;2023-08-20T06:13:53;24.40;99.90
14884;DHT22;7534;50.762;7.000;2023-08-20T06:16:19;24.80;99.90
14884;DHT22;7534;50.762;7.000;2023-08-20T06:18:45;25.00;99.90
14884;DHT22;7534;50.762;7.000;2023-08-20T06:21:11;25.10;99.90
14884;DHT22;7534;50.762;7.000;2023-08-20T06:23:36;24.90;99.90
14884;DHT22;7534;50.762;7.000;2023-08-20T06:26:02;25.30;99.90
14884;DHT22;7534;50.762;7.000;2023-08-20T06:28:28;25.00;99.90
14884;DHT22;7534;50.762;7.000;2023-08-20T06:30:53;25.10;99.90
14884;DHT22;7534;50.762;7.000;2023-08-20T06:33:19;25.20;99.90
14884;DHT22;7534;50.762;7.000;2023-08-20T06:35:45;25.40;99.90
14884;DHT22;7534;50.762;7.000;2023-08-20T06:38:11;25.40;99.90
14884;DHT22;7534;50.762;7.000;2023-08-20T06:40:36;25.50;99.90
14884;DHT22;7534;50.762;7.000;2023-08-20T06:43:02;25.80;99.90
14884;DHT22;7534;50.762;7.000;2023-08-20T06:45:30;26.90;99.90
14884;DHT22;7534;50.762;7.000;2023-08-20T06:47:56;28.60;99.90
14884;DHT22;7534;50.762;7.000;2023-08-20T06:50:23;30.50;95.80
14884;DHT22;7534;50.762;7.000;2023-08-20T06:52:49;32.30;92.80
14884;DHT22;7534;50.762;7.000;2023-08-20T06:55:14;34.00;88.60
14884;DHT22;7534;50.762;7.000;2023-08-20T06:57:40;35.50;92.60
14884;DHT22;7534;50.762;7.000;2023-08-20T07:00:06;34.30;73.60
14884;DHT22;7534;50.762;7.000;2023-08-20T07:02:32;38.20;72.30
14884;DHT22;7534;50.762;7.000;2023-08-20T07:04:58;39.20;72.00
14884;DHT22;7534;50.762;7.000;2023-08-20T07:07:24;39.80;70.60
14884;DHT22;7534;50.762;7.000;2023-08-20T07:09:49;39.80;68.60
14884;DHT22;7534;50.762;7.000;2023-08-20T07:12:15;40.00;67.40
14884;DHT22;7534;50.762;7.000;2023-08-20T07:14:41;40.00;66.90
14884;DHT22;7534;50.762;7.000;2023-08-20T07:17:07;40.70;67.00
14884;DHT22;7534;50.762;7.000;2023-08-20T07:19:33;40.70;70.80
14884;DHT22;7534;50.762;7.000;2023-08-20T07:21:59;40.90;84.20
14884;DHT22;7534;50.762;7.000;2023-08-20T08:08:22;46.10;36.70
14884;DHT22;7534;50.762;7.000;2023-08-20T08:10:49;46.00;38.60
14884;DHT22;7534;50.762;7.000;2023-08-20T08:13:19;46.50;37.10
14884;DHT22;7534;50.762;7.000;2023-08-20T08:15:46;46.80;36.40
14884;DHT22;7534;50.762;7.000;2023-08-20T08:18:12;46.90;36.00
14884;DHT22;7534;50.762;7.000;2023-08-20T08:20:38;46.90;35.70
14884;DHT22;7534;50.762;7.000;2023-08-20T08:23:04;47.00;35.60
14884;DHT22;7534;50.762;7.000;2023-08-20T08:25:30;46.80;36.20
14884;DHT22;7534;50.762;7.000;2023-08-20T08:27:56;46.60;35.60
14884;DHT22;7534;50.762;7.000;2023-08-20T08:30:22;46.60;35.30
14884;DHT22;7534;50.762;7.000;2023-08-20T08:32:48;46.50;34.60
14884;DHT22;7534;50.762;7.000;2023-08-20T08:35:13;45.90;36.30
14884;DHT22;7534;50.762;7.000;2023-08-20T08:37:39;45.70;35.10
14884;DHT22;7534;50.762;7.000;2023-08-20T08:40:05;45.40;35.80
14884;DHT22;7534;50.762;7.000;2023-08-20T08:42:33;45.80;35.20
14884;DHT22;7534;50.762;7.000;2023-08-20T08:45:02;45.60;36.00
14884;DHT22;7534;50.762;7.000;2023-08-20T08:47:29;45.50;35.60
14884;DHT22;7534;50.762;7.000;2023-08-20T08:49:56;45.60;35.50
14884;DHT22;7534;50.762;7.000;2023-08-20T08:52:25;45.40;35.80
14884;DHT22;7534;50.762;7.000;2023-08-20T08:54:52;45.60;35.50
14884;DHT22;7534;50.762;7.000;2023-08-20T08:57:19;45.70;35.90
14884;DHT22;7534;50.762;7.000;2023-08-20T08:59:45;46.00;35.00
14884;DHT22;7534;50.762;7.000;2023-08-20T09:02:12;45.10;35.00
14884;DHT22;7534;50.762;7.000;2023-08-20T09:04:42;43.90;36.70
14884;DHT22;7534;50.762;7.000;2023-08-20T09:07:12;43.60;37.70
14884;DHT22;7534;50.762;7.000;2023-08-20T09:09:42;44.20;37.00
14884;DHT22;7534;50.762;7.000;2023-08-20T09:12:16;42.70;37.80
14884;DHT22;7534;50.762;7.000;2023-08-20T09:14:49;42.30;39.30
14884;DHT22;7534;50.762;7.000;2023-08-20T09:17:16;43.10;39.40
14884;DHT22;7534;50.762;7.000;2023-08-20T09:19:45;42.70;38.30
14884;DHT22;7534;50.762;7.000;2023-08-20T09:22:15;41.90;38.80
14884;DHT22;7534;50.762;7.000;2023-08-20T09:24:41;41.20;40.10
14884;DHT22;7534;50.762;7.000;2023-08-20T09:27:12;40.40;41.10
14884;DHT22;7534;50.762;7.000;2023-08-20T09:29:46;39.80;44.50
14884;DHT22;7534;50.762;7.000;2023-08-20T09:32:21;40.00;44.00
14884;DHT22;7534;50.762;7.000;2023-08-20T09:34:49;39.90;40.80
14884;DHT22;7534;50.762;7.000;2023-08-20T09:37:19;40.50;41.00
14884;DHT22;7534;50.762;7.000;2023-08-20T09:39:46;40.40;40.40
14884;DHT22;7534;50.762;7.000;2023-08-20T09:42:13;40.70;40.40
14884;DHT22;7534;50.762;7.000;2023-08-20T09:44:45;41.80;38.80
14884;DHT22;7534;50.762;7.000;2023-08-20T09:47:13;41.10;37.90
14884;DHT22;7534;50.762;7.000;2023-08-20T09:49:42;41.80;38.90
14884;DHT22;7534;50.762;7.000;2023-08-20T09:52:16;42.70;37.10
14884;DHT22;7534;50.762;7.000;2023-08-20T09:55:16;42.90;36.10
14884;DHT22;7534;50.762;7.000;2023-08-20T09:57:47;41.20;37.80
14884;DHT22;7534;50.762;7.000;2023-08-20T10:00:14;41.00;38.50
14884;DHT22;7534;50.762;7.000;2023-08-20T10:02:43;38.90;41.90
14884;DHT22;7534;50.762;7.000;2023-08-20T10:05:10;39.20;42.00
14884;DHT22;7534;50.762;7.000;2023-08-20T10:07:38;39.80;41.60
14884;DHT22;7534;50.762;7.000;2023-08-20T10:10:07;39.80;41.50
14884;DHT22;7534;50.762;7.000;2023-08-20T10:12:35;39.90;41.70
14884;DHT22;7534;50.762;7.000;2023-08-20T10:15:02;40.80;40.70
14884;DHT22;7534;50.762;7.000;2023-08-20T10:17:33;41.40;39.00
14884;DHT22;7534;50.762;7.000;2023-08-20T10:20:01;41.70;39.10
14884;DHT22;7534;50.762;7.000;2023-08-20T10:22:38;41.10;39.20
14884;DHT22;7534;50.762;7.000;2023-08-20T10:25:23;40.50;39.80
14884;DHT22;7534;50.762;7.000;2023-08-20T10:27:49;38.60;44.40
14884;DHT22;7534;50.762;7.000;2023-08-20T10:30:26;38.50;44.30
14884;DHT22;7534;50.762;7.000;2023-08-20T10:32:57;38.60;44.40
14884;DHT22;7534;50.762;7.000;2023-08-20T10:35:28;38.10;44.80
14884;DHT22;7534;50.762;7.000;2023-08-20T10:38:13;37.80;46.00
14884;DHT22;7534;50.762;7.000;2023-08-20T10:40:54;37.70;47.80
14884;DHT22;7534;50.762;7.000;2023-08-20T10:43:34;37.90;47.30
14884;DHT22;7534;50.762;7.000;2023-08-20T10:46:07;38.40;48.00
14884;DHT22;7534;50.762;7.000;2023-08-20T10:48:39;38.70;47.90
14884;DHT22;7534;50.762;7.000;2023-08-20T10:51:13;38.50;48.10
14884;DHT22;7534;50.762;7.000;2023-08-20T10:54:05;37.90;49.10
14884;DHT22;7534;50.762;7.000;2023-08-20T10:56:55;37.10;52.30
14884;DHT22;7534;50.762;7.000;2023-08-20T10:59:26;36.70;53.00
14884;DHT22;7534;50.762;7.000;2023-08-20T11:01:57;36.70;53.30
14884;DHT22;7534;50.762;7.000;2023-08-20T11:04:28;36.40;53.50
14884;DHT22;7534;50.762;7.000;2023-08-20T11:06:58;35.90;60.90
14884;DHT22;7534;50.762;7.000;2023-08-20T11:09:26;35.60;64.80
14884;DHT22;7534;50.762;7.000;2023-08-20T11:11:54;35.00;71.20
14884;DHT22;7534;50.762;7.000;2023-08-20T11:16:50;33.00;57.60
14884;DHT22;7534;50.762;7.000;2023-08-20T11:19:20;32.90;58.20
14884;DHT22;7534;50.762;7.000;2023-08-20T11:21:48;33.00;58.60
14884;DHT22;7534;50.762;7.000;2023-08-20T11:24:14;33.00;59.70
14884;DHT22;7534;50.762;7.000;2023-08-20T11:26:42;33.20;59.40
14884;DHT22;7534;50.762;7.000;2023-08-20T11:29:10;33.20;60.70
14884;DHT22;7534;50.762;7.000;2023-08-20T11:32:12;33.20;60.80
14884;DHT22;7534;50.762;7.000;2023-08-20T11:34:55;33.10;61.70
14884;DHT22;7534;50.762;7.000;2023-08-20T11:37:30;33.10;60.60
14884;DHT22;7534;50.762;7.000;2023-08-20T11:55:00;32.40;64.00
14884;DHT22;7534;50.762;7.000;2023-08-20T11:57:31;32.70;64.10
14884;DHT22;7534;50.762;7.000;2023-08-20T12:00:04;32.70;64.30
14884;DHT22;7534;50.762;7.000;2023-08-20T12:02:34;32.60;65.60
14884;DHT22;7534;50.762;7.000;2023-08-20T12:05:00;32.80;64.80
14884;DHT22;7534;50.762;7.000;2023-08-20T12:07:26;32.90;64.90
14884;DHT22;7534;50.762;7.000;2023-08-20T12:09:54;33.00;64.10
14884;DHT22;7534;50.762;7.000;2023-08-20T12:12:21;33.20;64.80
14884;DHT22;7534;50.762;7.000;2023-08-20T12:14:48;33.10;59.30
14884;DHT22;7534;50.762;7.000;2023-08-20T12:17:18;33.10;60.90
14884;DHT22;7534;50.762;7.000;2023-08-20T12:19:46;33.10;60.90
14884;DHT22;7534;50.762;7.000;2023-08-20T12:22:12;32.80;61.30
14884;DHT22;7534;50.762;7.000;2023-08-20T12:24:49;33.10;61.70
14884;DHT22;7534;50.762;7.000;2023-08-20T12:27:24;33.00;61.90
14884;DHT22;7534;50.762;7.000;2023-08-20T12:29:50;33.10;63.20
14884;DHT22;7534;50.762;7.000;2023-08-20T12:32:20;32.80;64.40
14884;DHT22;7534;50.762;7.000;2023-08-20T12:34:48;32.80;64.60
14884;DHT22;7534;50.762;7.000;2023-08-20T12:37:20;33.10;65.50
14884;DHT22;7534;50.762;7.000;2023-08-20T12:39:52;33.20;63.90
14884;DHT22;7534;50.762;7.000;2023-08-20T12:42:24;33.30;60.80
14884;DHT22;7534;50.762;7.000;2023-08-20T12:45:18;33.20;60.70
14884;DHT22;7534;50.762;7.000;2023-08-20T12:48:23;33.20;59.50
14884;DHT22;7534;50.762;7.000;2023-08-20T12:50:57;33.30;61.40
14884;DHT22;7534;50.762;7.000;2023-08-20T12:53:48;33.60;61.10
14884;DHT22;7534;50.762;7.000;2023-08-20T12:56:23;33.70;60.50
14884;DHT22;7534;50.762;7.000;2023-08-20T12:58:54;33.80;59.70
14884;DHT22;7534;50.762;7.000;2023-08-20T13:01:20;33.90;60.50
14884;DHT22;7534;50.762;7.000;2023-08-20T13:03:46;34.10;60.10
14884;DHT22;7534;50.762;7.000;2023-08-20T13:06:32;34.60;60.20
14884;DHT22;7534;50.762;7.000;2023-08-20T13:09:01;35.00;58.70
14884;DHT22;7534;50.762;7.000;2023-08-20T13:11:39;35.50;54.70
14884;DHT22;7534;50.762;7.000;2023-08-20T13:14:06;35.90;54.90
14884;DHT22;7534;50.762;7.000;2023-08-20T13:25:34;34.80;56.60
14884;DHT22;7534;50.762;7.000;2023-08-20T13:28:35;34.80;56.60
14884;DHT22;7534;50.762;7.000;2023-08-20T13:35:05;35.70;54.30
14884;DHT22;7534;50.762;7.000;2023-08-20T13:48:46;35.80;52.40
14884;DHT22;7534;50.762;7.000;2023-08-20T13:59:45;36.60;51.20
14884;DHT22;7534;50.762;7.000;2023-08-20T14:26:52;35.70;51.70
14884;DHT22;7534;50.762;7.000;2023-08-20T14:30:07;35.70;52.30
14884;DHT22;7534;50.762;7.000;2023-08-20T14:32:45;35.90;52.50
14884;DHT22;7534;50.762;7.000;2023-08-20T14:35:32;36.00;52.30
14884;DHT22;7534;50.762;7.000;2023-08-20T14:37:58;35.90;52.50
14884;DHT22;7534;50.762;7.000;2023-08-20T14:40:42;35.80;52.60
14884;DHT22;7534;50.762;7.000;2023-08-20T14:43:29;35.40;52.30
14884;DHT22;7534;50.762;7.000;2023-08-20T14:45:55;35.10;53.60
14884;DHT22;7534;50.762;7.000;2023-08-20T14:55:18;34.50;55.20
14884;DHT22;7534;50.762;7.000;2023-08-20T14:57:49;33.90;57.50
14884;DHT22;7534;50.762;7.000;2023-08-20T15:00:19;33.60;58.40
14884;DHT22;7534;50.762;7.000;2023-08-20T15:02:50;33.40;58.30
14884;DHT22;7534;50.762;7.000;2023-08-20T15:05:36;33.40;59.30
14884;DHT22;7534;50.762;7.000;2023-08-20T15:08:12;33.30;59.90
14884;DHT22;7534;50.762;7.000;2023-08-20T15:10:58;33.50;59.10
14884;DHT22;7534;50.762;7.000;2023-08-20T15:16:51;33.80;58.50
14884;DHT22;7534;50.762;7.000;2023-08-20T15:19:19;33.70;58.10
14884;DHT22;7534;50.762;7.000;2023-08-20T15:22:18;33.50;57.90
14884;DHT22;7534;50.762;7.000;2023-08-20T15:24:50;33.50;58.50
14884;DHT22;7534;50.762;7.000;2023-08-20T15:27:56;33.60;60.40
14884;DHT22;7534;50.762;7.000;2023-08-20T15:30:25;33.90;59.90
14884;DHT22;7534;50.762;7.000;2023-08-20T15:32:51;34.00;57.90
14884;DHT22;7534;50.762;7.000;2023-08-20T15:35:17;34.10;58.30
14884;DHT22;7534;50.762;7.000;2023-08-20T15:37:42;34.00;57.40
14884;DHT22;7534;50.762;7.000;2023-08-20T15:40:10;33.90;58.40
14884;DHT22;7534;50.762;7.000;2023-08-20T15:42:40;33.90;58.90
14884;DHT22;7534;50.762;7.000;2023-08-20T15:45:07;33.70;58.60
14884;DHT22;7534;50.762;7.000;2023-08-20T15:47:34;33.50;59.20
14884;DHT22;7534;50.762;7.000;2023-08-20T15:50:00;33.20;59.90
14884;DHT22;7534;50.762;7.000;2023-08-20T15:52:26;33.00;60.30
14884;DHT22;7534;50.762;7.000;2023-08-20T15:54:53;33.00;61.20
14884;DHT22;7534;50.762;7.000;2023-08-20T15:57:19;33.10;61.90
14884;DHT22;7534;50.762;7.000;2023-08-20T15:59:47;33.40;60.60
14884;DHT22;7534;50.762;7.000;2023-08-20T16:02:13;33.70;58.60
14884;DHT22;7534;50.762;7.000;2023-08-20T16:04:39;33.60;58.80
14884;DHT22;7534;50.762;7.000;2023-08-20T16:07:05;33.40;60.00
14884;DHT22;7534;50.762;7.000;2023-08-20T16:09:35;33.10;60.30
14884;DHT22;7534;50.762;7.000;2023-08-20T16:12:01;32.90;60.50
14884;DHT22;7534;50.762;7.000;2023-08-20T16:14:28;32.70;60.30
14884;DHT22;7534;50.762;7.000;2023-08-20T16:16:53;32.80;60.40
14884;DHT22;7534;50.762;7.000;2023-08-20T16:19:19;32.80;61.90
14884;DHT22;7534;50.762;7.000;2023-08-20T16:21:47;32.80;62.30
14884;DHT22;7534;50.762;7.000;2023-08-20T16:24:12;32.60;62.90
14884;DHT22;7534;50.762;7.000;2023-08-20T16:26:38;32.40;63.40
14884;DHT22;7534;50.762;7.000;2023-08-20T16:29:04;32.20;64.50
14884;DHT22;7534;50.762;7.000;2023-08-20T16:31:30;32.10;64.70
14884;DHT22;7534;50.762;7.000;2023-08-20T16:48:09;32.10;67.30
14884;DHT22;7534;50.762;7.000;2023-08-20T16:57:00;31.90;65.60
14884;DHT22;7534;50.762;7.000;2023-08-20T16:59:26;31.80;66.10
14884;DHT22;7534;50.762;7.000;2023-08-20T17:06:07;31.60;67.30
14884;DHT22;7534;50.762;7.000;2023-08-20T17:12:55;31.30;68.10
14884;DHT22;7534;50.762;7.000;2023-08-20T17:40:51;30.80;71.20
14884;DHT22;7534;50.762;7.000;2023-08-20T17:43:47;30.50;73.50
14884;DHT22;7534;50.762;7.000;2023-08-20T18:02:13;29.60;76.80
14884;DHT22;7534;50.762;7.000;2023-08-20T18:13:14;28.70;80.70
14884;DHT22;7534;50.762;7.000;2023-08-20T18:16:41;28.80;82.10
14884;DHT22;7534;50.762;7.000;2023-08-20T18:19:53;28.50;83.10
14884;DHT22;7534;50.762;7.000;2023-08-20T18:23:18;28.40;85.00
14884;DHT22;7534;50.762;7.000;2023-08-20T18:26:27;28.10;85.70
14884;DHT22;7534;50.762;7.000;2023-08-20T18:29:47;28.10;86.80
14884;DHT22;7534;50.762;7.000;2023-08-20T18:40:27;27.50;89.40
14884;DHT22;7534;50.762;7.000;2023-08-20T18:53:26;27.00;92.00
14884;DHT22;7534;50.762;7.000;2023-08-20T18:55:53;27.00;92.30
14884;DHT22;7534;50.762;7.000;2023-08-20T18:58:20;26.80;92.70
14884;DHT22;7534;50.762;7.000;2023-08-20T19:00:47;26.70;93.20
14884;DHT22;7534;50.762;7.000;2023-08-20T19:03:13;26.60;93.90
14884;DHT22;7534;50.762;7.000;2023-08-20T19:05:47;26.50;94.20
14884;DHT22;7534;50.762;7.000;2023-08-20T19:08:15;26.40;94.70
14884;DHT22;7534;50.762;7.000;2023-08-20T19:10:43;26.50;94.80
14884;DHT22;7534;50.762;7.000;2023-08-20T19:13:11;26.30;95.30
14884;DHT22;7534;50.762;7.000;2023-08-20T19:15:48;26.20;95.80
14884;DHT22;7534;50.762;7.000;2023-08-20T19:18:18;26.20;95.90
14884;DHT22;7534;50.762;7.000;2023-08-20T19:20:52;26.00;96.20
14884;DHT22;7534;50.762;7.000;2023-08-20T19:23:20;26.00;96.70
14884;DHT22;7534;50.762;7.000;2023-08-20T19:25:48;25.80;96.60
14884;DHT22;7534;50.762;7.000;2023-08-20T19:28:14;25.80;96.60
14884;DHT22;7534;50.762;7.000;2023-08-20T19:30:45;25.70;96.70
14884;DHT22;7534;50.762;7.000;2023-08-20T19:33:17;25.60;96.70
14884;DHT22;7534;50.762;7.000;2023-08-20T19:36:27;25.60;96.90
14884;DHT22;7534;50.762;7.000;2023-08-20T19:39:13;25.50;97.00
14884;DHT22;7534;50.762;7.000;2023-08-20T19:43:16;25.40;97.20
14884;DHT22;7534;50.762;7.000;2023-08-20T19:54:56;25.00;98.30
14884;DHT22;7534;50.762;7.000;2023-08-20T19:57:28;25.00;98.30
14884;DHT22;7534;50.762;7.000;2023-08-20T20:15:51;24.50;99.90
14884;DHT22;7534;50.762;7.000;2023-08-20T20:19:07;24.40;99.90
14884;DHT22;7534;50.762;7.000;2023-08-20T20:22:04;24.30;99.90
14884;DHT22;7534;50.762;7.000;2023-08-20T20:24:30;24.10;99.90
14884;DHT22;7534;50.762;7.000;2023-08-20T20:26:55;24.00;99.90